sensor_id;sensor_type;location;lat;lon;timestamp;pressure;altitude;pressure_sealevel;temperature
1532;BMP280;759;53.170;8.210;2022-12-07T00:01:54;100370.22;;;3.72
1532;BMP280;759;53.170;8.210;2022-12-07T00:04:20;100361.84;;;3.70
1532;BMP280;759;53.170;8.210;2022-12-07T00:06:46;100366.97;;;3.63
1532;BMP280;759;53.170;8.210;2022-12-07T00:09:13;100364.91;;;3.72
1532;BMP280;759;53.170;8.210;2022-12-07T00:11:38;100361.94;;;3.73
1532;BMP280;759;53.170;8.210;2022-12-07T00:14:05;100365.25;;;3.70
1532;BMP280;759;53.170;8.210;2022-12-07T00:16:32;100368.66;;;3.71
1532;BMP280;759;53.170;8.210;2022-12-07T00:18:57;100372.53;;;3.73
1532;BMP280;759;53.170;8.210;2022-12-07T00:21:24;100379.66;;;3.73
1532;BMP280;759;53.170;8.210;2022-12-07T00:23:50;100381.56;;;3.72
1532;BMP280;759;53.170;8.210;2022-12-07T00:28:40;100373.94;;;3.71
1532;BMP280;759;53.170;8.210;2022-12-07T00:31:06;100373.09;;;3.67
1532;BMP280;759;53.170;8.210;2022-12-07T00:33:32;100374.66;;;3.68
1532;BMP280;759;53.170;8.210;2022-12-07T00:35:58;100372.16;;;3.59
1532;BMP280;759;53.170;8.210;2022-12-07T00:38:24;100369.88;;;3.57
1532;BMP280;759;53.170;8.210;2022-12-07T00:41:01;100363.34;;;3.51
1532;BMP280;759;53.170;8.210;2022-12-07T00:43:27;100363.25;;;3.48
1532;BMP280;759;53.170;8.210;2022-12-07T00:45:52;100358.56;;;3.41
1532;BMP280;759;53.170;8.210;2022-12-07T00:48:18;100353.84;;;3.34
1532;BMP280;759;53.170;8.210;2022-12-07T00:50:43;100361.78;;;3.34
1532;BMP280;759;53.170;8.210;2022-12-07T00:53:08;100359.47;;;3.33
1532;BMP280;759;53.170;8.210;2022-12-07T00:55:34;100351.53;;;3.33
1532;BMP280;759;53.170;8.210;2022-12-07T00:57:59;100352.84;;;3.39
1532;BMP280;759;53.170;8.210;2022-12-07T01:00:24;100348.78;;;3.26
1532;BMP280;759;53.170;8.210;2022-12-07T01:02:49;100344.31;;;3.30
1532;BMP280;759;53.170;8.210;2022-12-07T01:05:15;100341.00;;;3.17
1532;BMP280;759;53.170;8.210;2022-12-07T01:07:40;100343.63;;;3.17
1532;BMP280;759;53.170;8.210;2022-12-07T01:10:05;100351.47;;;3.13
1532;BMP280;759;53.170;8.210;2022-12-07T01:12:31;100339.63;;;3.07
1532;BMP280;759;53.170;8.210;2022-12-07T01:14:56;100345.75;;;3.11
1532;BMP280;759;53.170;8.210;2022-12-07T01:17:21;100335.19;;;3.11
1532;BMP280;759;53.170;8.210;2022-12-07T01:19:46;100343.78;;;3.08
1532;BMP280;759;53.170;8.210;2022-12-07T01:22:12;100335.38;;;3.03
1532;BMP280;759;53.170;8.210;2022-12-07T01:24:37;100338.00;;;3.03
1532;BMP280;759;53.170;8.210;2022-12-07T01:27:02;100345.16;;;3.02
1532;BMP280;759;53.170;8.210;2022-12-07T01:29:27;100344.66;;;3.12
1532;BMP280;759;53.170;8.210;2022-12-07T01:31:52;100333.22;;;3.08
1532;BMP280;759;53.170;8.210;2022-12-07T01:34:18;100340.13;;;3.13
1532;BMP280;759;53.170;8.210;2022-12-07T01:36:43;100345.09;;;3.14
1532;BMP280;759;53.170;8.210;2022-12-07T01:39:09;100348.25;;;3.20
1532;BMP280;759;53.170;8.210;2022-12-07T01:41:36;100366.84;;;3.24
1532;BMP280;759;53.170;8.210;2022-12-07T01:44:21;100366.84;;;3.24
1532;BMP280;759;53.170;8.210;2022-12-07T01:49:33;100344.72;;;3.32
1532;BMP280;759;53.170;8.210;2022-12-07T01:52:02;100334.81;;;3.29
1532;BMP280;759;53.170;8.210;2022-12-07T01:54:28;100340.28;;;3.36
1532;BMP280;759;53.170;8.210;2022-12-07T01:56:54;100338.78;;;3.35
1532;BMP280;759;53.170;8.210;2022-12-07T01:59:22;100336.38;;;3.30
1532;BMP280;759;53.170;8.210;2022-12-07T02:01:49;100338.19;;;3.26
1532;BMP280;759;53.170;8.210;2022-12-07T02:04:14;100327.69;;;3.29
1532;BMP280;759;53.170;8.210;2022-12-07T02:06:40;100337.91;;;3.31
1532;BMP280;759;53.170;8.210;2022-12-07T02:09:06;100338.31;;;3.33
1532;BMP280;759;53.170;8.210;2022-12-07T02:11:31;100335.00;;;3.36
1532;BMP280;759;53.170;8.210;2022-12-07T02:13:57;100323.16;;;3.30
1532;BMP280;759;53.170;8.210;2022-12-07T02:24:11;100332.97;;;3.29
1532;BMP280;759;53.170;8.210;2022-12-07T02:29:28;100319.09;;;3.16
1532;BMP280;759;53.170;8.210;2022-12-07T02:34:38;100312.34;;;3.19
1532;BMP280;759;53.170;8.210;2022-12-07T02:37:10;100304.59;;;3.10
1532;BMP280;759;53.170;8.210;2022-12-07T02:39:41;100304.59;;;3.10
1532;BMP280;759;53.170;8.210;2022-12-07T02:42:09;100296.06;;;3.01
1532;BMP280;759;53.170;8.210;2022-12-07T02:44:37;100297.16;;;3.00
1532;BMP280;759;53.170;8.210;2022-12-07T02:47:07;100288.22;;;2.89
1532;BMP280;759;53.170;8.210;2022-12-07T02:49:34;100285.31;;;2.94
1532;BMP280;759;53.170;8.210;2022-12-07T02:52:00;100289.56;;;2.83
1532;BMP280;759;53.170;8.210;2022-12-07T02:54:25;100292.47;;;2.77
1532;BMP280;759;53.170;8.210;2022-12-07T02:57:00;100285.84;;;2.84
1532;BMP280;759;53.170;8.210;2022-12-07T03:04:50;100301.50;;;2.76
1532;BMP280;759;53.170;8.210;2022-12-07T03:12:44;100283.53;;;2.82
1532;BMP280;759;53.170;8.210;2022-12-07T03:15:18;100291.19;;;2.87
1532;BMP280;759;53.170;8.210;2022-12-07T03:17:45;100287.78;;;2.87
1532;BMP280;759;53.170;8.210;2022-12-07T03:20:11;100284.81;;;2.88
1532;BMP280;759;53.170;8.210;2022-12-07T03:22:38;100287.69;;;2.83
1532;BMP280;759;53.170;8.210;2022-12-07T03:25:06;100287.25;;;2.81
1532;BMP280;759;53.170;8.210;2022-12-07T03:27:35;100285.97;;;2.75
1532;BMP280;759;53.170;8.210;2022-12-07T03:30:03;100284.09;;;2.75
1532;BMP280;759;53.170;8.210;2022-12-07T03:32:37;100292.72;;;2.72
1532;BMP280;759;53.170;8.210;2022-12-07T03:35:05;100290.59;;;2.78
1532;BMP280;759;53.170;8.210;2022-12-07T03:37:56;100284.97;;;2.80
1532;BMP280;759;53.170;8.210;2022-12-07T03:40:34;100282.06;;;2.85
1532;BMP280;759;53.170;8.210;2022-12-07T03:42:59;100291.78;;;2.81
1532;BMP280;759;53.170;8.210;2022-12-07T03:45:30;100284.28;;;2.83
1532;BMP280;759;53.170;8.210;2022-12-07T03:53:09;100290.59;;;2.78
1532;BMP280;759;53.170;8.210;2022-12-07T03:55:37;100290.06;;;2.72
1532;BMP280;759;53.170;8.210;2022-12-07T03:58:05;100290.19;;;2.76
1532;BMP280;759;53.170;8.210;2022-12-07T04:00:30;100293.47;;;2.73
1532;BMP280;759;53.170;8.210;2022-12-07T04:02:56;100290.75;;;2.69
1532;BMP280;759;53.170;8.210;2022-12-07T04:05:21;100299.84;;;2.72
1532;BMP280;759;53.170;8.210;2022-12-07T04:07:52;100291.59;;;2.73
1532;BMP280;759;53.170;8.210;2022-12-07T04:10:18;100294.94;;;2.70
1532;BMP280;759;53.170;8.210;2022-12-07T04:12:43;100293.38;;;2.69
1532;BMP280;759;53.170;8.210;2022-12-07T04:15:09;100301.06;;;2.74
1532;BMP280;759;53.170;8.210;2022-12-07T04:17:34;100297.56;;;2.70
1532;BMP280;759;53.170;8.210;2022-12-07T04:19:59;100300.66;;;2.72
1532;BMP280;759;53.170;8.210;2022-12-07T04:22:24;100299.09;;;2.71
1532;BMP280;759;53.170;8.210;2022-12-07T04:24:49;100293.66;;;2.64
1532;BMP280;759;53.170;8.210;2022-12-07T04:27:15;100298.25;;;2.67
1532;BMP280;759;53.170;8.210;2022-12-07T04:29:40;100303.72;;;2.74
1532;BMP280;759;53.170;8.210;2022-12-07T04:32:05;100310.28;;;2.81
1532;BMP280;759;53.170;8.210;2022-12-07T04:34:30;100297.06;;;2.81
1532;BMP280;759;53.170;8.210;2022-12-07T04:36:55;100298.59;;;2.82
1532;BMP280;759;53.170;8.210;2022-12-07T04:39:23;100299.47;;;2.86
1532;BMP280;759;53.170;8.210;2022-12-07T04:41:48;100300.16;;;2.83
1532;BMP280;759;53.170;8.210;2022-12-07T04:44:14;100282.75;;;2.82
1532;BMP280;759;53.170;8.210;2022-12-07T04:46:39;100290.34;;;2.83
1532;BMP280;759;53.170;8.210;2022-12-07T04:49:05;100290.19;;;2.76
1532;BMP280;759;53.170;8.210;2022-12-07T04:51:30;100278.25;;;2.82
1532;BMP280;759;53.170;8.210;2022-12-07T04:53:55;100282.94;;;2.89
1532;BMP280;759;53.170;8.210;2022-12-07T04:56:21;100284.28;;;2.83
1532;BMP280;759;53.170;8.210;2022-12-07T04:58:50;100275.94;;;2.81
1532;BMP280;759;53.170;8.210;2022-12-07T05:01:16;100275.94;;;2.81
1532;BMP280;759;53.170;8.210;2022-12-07T05:03:41;100278.25;;;2.82
1532;BMP280;759;53.170;8.210;2022-12-07T05:06:07;100273.72;;;2.83
1532;BMP280;759;53.170;8.210;2022-12-07T05:08:32;100273.63;;;2.79
1532;BMP280;759;53.170;8.210;2022-12-07T05:10:58;100267.91;;;2.77
1532;BMP280;759;53.170;8.210;2022-12-07T05:13:23;100266.72;;;2.74
1532;BMP280;759;53.170;8.210;2022-12-07T05:15:49;100267.06;;;2.73
1532;BMP280;759;53.170;8.210;2022-12-07T05:18:14;100268.59;;;2.74
1532;BMP280;759;53.170;8.210;2022-12-07T05:20:39;100270.91;;;2.60
1532;BMP280;759;53.170;8.210;2022-12-07T05:23:05;100276.28;;;2.63
1532;BMP280;759;53.170;8.210;2022-12-07T05:25:30;100273.34;;;2.68
1532;BMP280;759;53.170;8.210;2022-12-07T05:27:55;100279.34;;;2.65
1532;BMP280;759;53.170;8.210;2022-12-07T05:30:21;100276.28;;;2.63
1532;BMP280;759;53.170;8.210;2022-12-07T05:32:46;100280.81;;;2.63
1532;BMP280;759;53.170;8.210;2022-12-07T05:35:11;100280.28;;;2.73
1532;BMP280;759;53.170;8.210;2022-12-07T05:37:36;100282.91;;;2.73
1532;BMP280;759;53.170;8.210;2022-12-07T05:40:02;100275.09;;;2.76
1532;BMP280;759;53.170;8.210;2022-12-07T05:42:27;100268.94;;;2.72
1532;BMP280;759;53.170;8.210;2022-12-07T05:44:52;100274.31;;;2.76
1532;BMP280;759;53.170;8.210;2022-12-07T05:47:18;100270.31;;;2.66
1532;BMP280;759;53.170;8.210;2022-12-07T05:49:43;100265.19;;;2.73
1532;BMP280;759;53.170;8.210;2022-12-07T05:52:08;100262.78;;;2.68
1532;BMP280;759;53.170;8.210;2022-12-07T05:54:33;100262.88;;;2.72
1532;BMP280;759;53.170;8.210;2022-12-07T05:56:59;100262.03;;;2.68
1532;BMP280;759;53.170;8.210;2022-12-07T05:59:24;100275.31;;;2.71
1532;BMP280;759;53.170;8.210;2022-12-07T06:01:50;100277.38;;;2.78
1532;BMP280;759;53.170;8.210;2022-12-07T06:04:16;100270.56;;;2.77
1532;BMP280;759;53.170;8.210;2022-12-07T06:06:41;100270.88;;;2.75
1532;BMP280;759;53.170;8.210;2022-12-07T06:09:06;100276.28;;;2.79
1532;BMP280;759;53.170;8.210;2022-12-07T06:11:31;100277.47;;;2.82
1532;BMP280;759;53.170;8.210;2022-12-07T06:14:15;100274.81;;;2.82
1532;BMP280;759;53.170;8.210;2022-12-07T06:16:40;100273.06;;;2.86
1532;BMP280;759;53.170;8.210;2022-12-07T06:19:06;100270.13;;;2.91
1532;BMP280;759;53.170;8.210;2022-12-07T06:21:31;100262.63;;;2.93
1532;BMP280;759;53.170;8.210;2022-12-07T06:23:56;100266.84;;;2.94
1532;BMP280;759;53.170;8.210;2022-12-07T06:26:21;100269.63;;;3.01
1532;BMP280;759;53.170;8.210;2022-12-07T06:28:46;100278.66;;;3.00
1532;BMP280;759;53.170;8.210;2022-12-07T06:31:12;100278.75;;;3.04
1532;BMP280;759;53.170;8.210;2022-12-07T06:33:37;100285.22;;;3.06
1532;BMP280;759;53.170;8.210;2022-12-07T06:36:02;100286.75;;;3.07
1532;BMP280;759;53.170;8.210;2022-12-07T06:38:27;100291.72;;;3.09
1532;BMP280;759;53.170;8.210;2022-12-07T06:40:53;100300.66;;;3.20
1532;BMP280;759;53.170;8.210;2022-12-07T06:43:18;100311.81;;;3.13
1532;BMP280;759;53.170;8.210;2022-12-07T06:45:43;100315.94;;;3.11
1532;BMP280;759;53.170;8.210;2022-12-07T06:48:08;100309.09;;;3.10
1532;BMP280;759;53.170;8.210;2022-12-07T06:50:33;100311.47;;;2.99
1532;BMP280;759;53.170;8.210;2022-12-07T06:52:59;100314.88;;;3.00
1532;BMP280;759;53.170;8.210;2022-12-07T06:55:24;100292.97;;;2.99
1532;BMP280;759;53.170;8.210;2022-12-07T06:57:49;100296.66;;;2.94
1532;BMP280;759;53.170;8.210;2022-12-07T07:00:14;100308.69;;;2.92
1532;BMP280;759;53.170;8.210;2022-12-07T07:02:39;100315.75;;;2.88
1532;BMP280;759;53.170;8.210;2022-12-07T07:05:05;100309.16;;;2.82
1532;BMP280;759;53.170;8.210;2022-12-07T07:07:30;100302.25;;;2.77
1532;BMP280;759;53.170;8.210;2022-12-07T07:09:55;100307.03;;;2.71
1532;BMP280;759;53.170;8.210;2022-12-07T07:12:20;100313.25;;;2.63
1532;BMP280;759;53.170;8.210;2022-12-07T07:14:45;100307.97;;;2.63
1532;BMP280;759;53.170;8.210;2022-12-07T07:17:11;100301.72;;;2.55
1532;BMP280;759;53.170;8.210;2022-12-07T07:19:36;100298.56;;;2.50
1532;BMP280;759;53.170;8.210;2022-12-07T07:22:02;100295.50;;;2.48
1532;BMP280;759;53.170;8.210;2022-12-07T07:24:28;100289.25;;;2.40
1532;BMP280;759;53.170;8.210;2022-12-07T07:26:53;100299.03;;;2.40
1532;BMP280;759;53.170;8.210;2022-12-07T07:29:18;100290.69;;;2.37
1532;BMP280;759;53.170;8.210;2022-12-07T07:31:43;100298.28;;;2.39
1532;BMP280;759;53.170;8.210;2022-12-07T07:34:08;100294.25;;;2.29
1532;BMP280;759;53.170;8.210;2022-12-07T07:36:33;100294.25;;;2.29
1532;BMP280;759;53.170;8.210;2022-12-07T07:38:59;100296.66;;;2.34
1532;BMP280;759;53.170;8.210;2022-12-07T07:41:24;100299.53;;;2.29
1532;BMP280;759;53.170;8.210;2022-12-07T07:43:49;100300.16;;;2.38
1532;BMP280;759;53.170;8.210;2022-12-07T07:46:14;100297.75;;;2.33
1532;BMP280;759;53.170;8.210;2022-12-07T07:48:39;100304.84;;;2.45
1532;BMP280;759;53.170;8.210;2022-12-07T07:51:06;100297.44;;;2.51
1532;BMP280;759;53.170;8.210;2022-12-07T07:53:32;100305.28;;;2.47
1532;BMP280;759;53.170;8.210;2022-12-07T07:55:57;100303.75;;;2.46
1532;BMP280;759;53.170;8.210;2022-12-07T07:58:22;100307.13;;;2.59
1532;BMP280;759;53.170;8.210;2022-12-07T08:00:47;100313.28;;;2.51
1532;BMP280;759;53.170;8.210;2022-12-07T08:03:12;100310.19;;;2.61
1532;BMP280;759;53.170;8.210;2022-12-07T08:05:38;100307.88;;;2.60
1532;BMP280;759;53.170;8.210;2022-12-07T08:08:03;100307.78;;;2.56
1532;BMP280;759;53.170;8.210;2022-12-07T08:10:28;100307.78;;;2.56
1532;BMP280;759;53.170;8.210;2022-12-07T08:12:54;100310.00;;;2.54
1532;BMP280;759;53.170;8.210;2022-12-07T08:15:39;100307.59;;;2.49
1532;BMP280;759;53.170;8.210;2022-12-07T08:18:05;100309.75;;;2.59
1532;BMP280;759;53.170;8.210;2022-12-07T08:20:30;100313.50;;;2.74
1532;BMP280;759;53.170;8.210;2022-12-07T08:22:56;100313.88;;;2.88
1532;BMP280;759;53.170;8.210;2022-12-07T08:25:22;100316.19;;;2.90
1532;BMP280;759;53.170;8.210;2022-12-07T08:27:47;100313.72;;;2.97
1532;BMP280;759;53.170;8.210;2022-12-07T08:30:12;100322.31;;;2.94
1532;BMP280;759;53.170;8.210;2022-12-07T08:32:38;100323.84;;;2.95
1532;BMP280;759;53.170;8.210;2022-12-07T08:35:03;100321.47;;;2.90
1532;BMP280;759;53.170;8.210;2022-12-07T08:37:28;100319.84;;;3.01
1532;BMP280;759;53.170;8.210;2022-12-07T08:39:53;100319.75;;;2.97
1532;BMP280;759;53.170;8.210;2022-12-07T08:42:19;100325.38;;;3.12
1532;BMP280;759;53.170;8.210;2022-12-07T08:44:45;100320.94;;;3.00
1532;BMP280;759;53.170;8.210;2022-12-07T08:47:10;100317.34;;;3.08
1532;BMP280;759;53.170;8.210;2022-12-07T08:49:37;100324.63;;;3.11
1532;BMP280;759;53.170;8.210;2022-12-07T08:52:04;100328.38;;;3.10
1532;BMP280;759;53.170;8.210;2022-12-07T08:54:29;100325.88;;;3.02
1532;BMP280;759;53.170;8.210;2022-12-07T08:56:55;100340.91;;;3.13
1532;BMP280;759;53.170;8.210;2022-12-07T08:59:21;100330.50;;;3.21
1532;BMP280;759;53.170;8.210;2022-12-07T09:01:46;100335.47;;;3.22
1532;BMP280;759;53.170;8.210;2022-12-07T09:04:11;100340.31;;;3.20
1532;BMP280;759;53.170;8.210;2022-12-07T09:11:47;100329.47;;;3.25
1532;BMP280;759;53.170;8.210;2022-12-07T09:14:12;100332.59;;;3.31
1532;BMP280;759;53.170;8.210;2022-12-07T09:16:38;100331.94;;;3.34
1532;BMP280;759;53.170;8.210;2022-12-07T09:19:06;100339.88;;;3.34
1532;BMP280;759;53.170;8.210;2022-12-07T09:21:36;100333.06;;;3.49
1532;BMP280;759;53.170;8.210;2022-12-07T09:24:02;100331.16;;;3.49
1532;BMP280;759;53.170;8.210;2022-12-07T09:26:27;100330.53;;;3.72
1532;BMP280;759;53.170;8.210;2022-12-07T09:28:53;100337.38;;;3.92
1532;BMP280;759;53.170;8.210;2022-12-07T09:31:18;100332.94;;;3.81
1532;BMP280;759;53.170;8.210;2022-12-07T09:33:43;100338.47;;;3.72
1532;BMP280;759;53.170;8.210;2022-12-07T09:36:09;100334.78;;;3.76
1532;BMP280;759;53.170;8.210;2022-12-07T09:38:35;100339.56;;;3.71
1532;BMP280;759;53.170;8.210;2022-12-07T09:41:04;100334.81;;;3.61
1532;BMP280;759;53.170;8.210;2022-12-07T09:43:30;100337.78;;;3.59
1532;BMP280;759;53.170;8.210;2022-12-07T09:45:55;100325.56;;;3.70
1532;BMP280;759;53.170;8.210;2022-12-07T09:50:52;100329.13;;;3.78
1532;BMP280;759;53.170;8.210;2022-12-07T09:53:24;100323.72;;;3.90
1532;BMP280;759;53.170;8.210;2022-12-07T09:55:50;100328.59;;;4.08
1532;BMP280;759;53.170;8.210;2022-12-07T09:58:24;100341.53;;;4.13
1532;BMP280;759;53.170;8.210;2022-12-07T10:00:57;100351.44;;;3.96
1532;BMP280;759;53.170;8.210;2022-12-07T10:03:23;100337.47;;;3.96
1532;BMP280;759;53.170;8.210;2022-12-07T10:05:49;100329.84;;;3.94
1532;BMP280;759;53.170;8.210;2022-12-07T10:08:15;100327.88;;;4.11
1532;BMP280;759;53.170;8.210;2022-12-07T10:10:42;100319.94;;;4.11
1532;BMP280;759;53.170;8.210;2022-12-07T10:13:08;100328.03;;;4.18
1532;BMP280;759;53.170;8.210;2022-12-07T10:15:45;100328.16;;;4.25
1532;BMP280;759;53.170;8.210;2022-12-07T10:18:53;100330.53;;;4.30
1532;BMP280;759;53.170;8.210;2022-12-07T10:23:26;100315.50;;;4.34
1532;BMP280;759;53.170;8.210;2022-12-07T10:25:51;100318.75;;;4.47
1532;BMP280;759;53.170;8.210;2022-12-07T10:28:19;100321.03;;;4.49
1532;BMP280;759;53.170;8.210;2022-12-07T10:30:49;100321.22;;;4.59
1532;BMP280;759;53.170;8.210;2022-12-07T10:34:00;100325.03;;;4.62
1532;BMP280;759;53.170;8.210;2022-12-07T10:36:01;100316.41;;;4.65
1532;BMP280;759;53.170;8.210;2022-12-07T10:38:39;100320.63;;;4.70
1532;BMP280;759;53.170;8.210;2022-12-07T10:41:08;100317.81;;;4.82
1532;BMP280;759;53.170;8.210;2022-12-07T10:43:34;100319.47;;;4.90
1532;BMP280;759;53.170;8.210;2022-12-07T10:46:08;100315.28;;;4.89
1532;BMP280;759;53.170;8.210;2022-12-07T10:48:51;100308.56;;;4.95
1532;BMP280;759;53.170;8.210;2022-12-07T10:56:39;100312.25;;;4.91
1532;BMP280;759;53.170;8.210;2022-12-07T11:17:34;100310.03;;;4.70
1532;BMP280;759;53.170;8.210;2022-12-07T11:25:24;100286.72;;;4.79
1532;BMP280;759;53.170;8.210;2022-12-07T11:30:27;100274.47;;;4.94
1532;BMP280;759;53.170;8.210;2022-12-07T11:35:45;100268.97;;;5.06
1532;BMP280;759;53.170;8.210;2022-12-07T11:38:14;100265.38;;;5.21
1532;BMP280;759;53.170;8.210;2022-12-07T11:40:39;100270.78;;;5.29
1532;BMP280;759;53.170;8.210;2022-12-07T11:45:31;100268.69;;;5.41
1532;BMP280;759;53.170;8.210;2022-12-07T11:48:01;100275.94;;;5.45
1532;BMP280;759;53.170;8.210;2022-12-07T12:01:21;100257.00;;;5.46
1532;BMP280;759;53.170;8.210;2022-12-07T12:03:51;100248.28;;;5.49
1532;BMP280;759;53.170;8.210;2022-12-07T12:06:17;100247.91;;;5.47
1532;BMP280;759;53.170;8.210;2022-12-07T12:08:46;100254.50;;;5.60
1532;BMP280;759;53.170;8.210;2022-12-07T12:11:22;100245.47;;;5.69
1532;BMP280;759;53.170;8.210;2022-12-07T12:16:19;100246.31;;;5.73
1532;BMP280;759;53.170;8.210;2022-12-07T12:18:51;100250.34;;;5.59
1532;BMP280;759;53.170;8.210;2022-12-07T12:21:20;100237.66;;;5.46
1532;BMP280;759;53.170;8.210;2022-12-07T12:23:48;100230.94;;;5.55
1532;BMP280;759;53.170;8.210;2022-12-07T12:26:17;100236.22;;;5.55
1532;BMP280;759;53.170;8.210;2022-12-07T12:28:57;100219.44;;;5.44
1532;BMP280;759;53.170;8.210;2022-12-07T12:33:59;100226.47;;;5.59
1532;BMP280;759;53.170;8.210;2022-12-07T12:44:00;100219.72;;;5.69
1532;BMP280;759;53.170;8.210;2022-12-07T12:48:53;100225.13;;;5.80
1532;BMP280;759;53.170;8.210;2022-12-07T12:54:08;100221.19;;;5.67
1532;BMP280;759;53.170;8.210;2022-12-07T12:56:39;100223.13;;;5.70
1532;BMP280;759;53.170;8.210;2022-12-07T12:59:28;100234.88;;;5.69
1532;BMP280;759;53.170;8.210;2022-12-07T13:04:39;100247.41;;;5.38
1532;BMP280;759;53.170;8.210;2022-12-07T13:07:13;100219.69;;;5.05
1532;BMP280;759;53.170;8.210;2022-12-07T13:09:58;100215.09;;;5.02
1532;BMP280;759;53.170;8.210;2022-12-07T13:12:23;100212.03;;;4.73
1532;BMP280;759;53.170;8.210;2022-12-07T13:14:53;100216.66;;;4.76
1532;BMP280;759;53.170;8.210;2022-12-07T13:19:56;100206.34;;;4.71
1532;BMP280;759;53.170;8.210;2022-12-07T13:25:05;100195.19;;;4.62
1532;BMP280;759;53.170;8.210;2022-12-07T13:27:32;100198.69;;;4.66
1532;BMP280;759;53.170;8.210;2022-12-07T13:29:58;100186.25;;;4.70
1532;BMP280;759;53.170;8.210;2022-12-07T13:32:24;100185.19;;;4.75
1532;BMP280;759;53.170;8.210;2022-12-07T13:34:49;100190.50;;;4.75
1532;BMP280;759;53.170;8.210;2022-12-07T13:37:21;100189.38;;;4.76
1532;BMP280;759;53.170;8.210;2022-12-07T13:39:49;100186.84;;;4.87
1532;BMP280;759;53.170;8.210;2022-12-07T13:42:19;100188.56;;;5.02
1532;BMP280;759;53.170;8.210;2022-12-07T13:44:47;100187.03;;;4.97
1532;BMP280;759;53.170;8.210;2022-12-07T13:47:13;100189.28;;;4.95
1532;BMP280;759;53.170;8.210;2022-12-07T13:49:48;100194.13;;;4.90
1532;BMP280;759;53.170;8.210;2022-12-07T13:57:23;100207.41;;;4.44
1532;BMP280;759;53.170;8.210;2022-12-07T13:59:49;100209.34;;;3.81
1532;BMP280;759;53.170;8.210;2022-12-07T14:02:26;100196.69;;;3.51
1532;BMP280;759;53.170;8.210;2022-12-07T14:04:52;100186.31;;;3.43
1532;BMP280;759;53.170;8.210;2022-12-07T14:07:24;100191.72;;;3.30
1532;BMP280;759;53.170;8.210;2022-12-07T14:09:57;100193.72;;;3.17
1532;BMP280;759;53.170;8.210;2022-12-07T14:12:23;100186.66;;;3.06
1532;BMP280;759;53.170;8.210;2022-12-07T14:14:49;100175.72;;;2.88
1532;BMP280;759;53.170;8.210;2022-12-07T14:17:18;100179.63;;;2.94
1532;BMP280;759;53.170;8.210;2022-12-07T14:19:54;100174.34;;;2.94
1532;BMP280;759;53.170;8.210;2022-12-07T14:24:47;100172.97;;;2.68
1532;BMP280;759;53.170;8.210;2022-12-07T14:27:17;100172.00;;;2.57
1532;BMP280;759;53.170;8.210;2022-12-07T14:29:42;100165.00;;;2.65
1532;BMP280;759;53.170;8.210;2022-12-07T14:32:17;100148.22;;;2.57
1532;BMP280;759;53.170;8.210;2022-12-07T14:34:52;100144.78;;;2.72
1532;BMP280;759;53.170;8.210;2022-12-07T14:37:18;100137.72;;;2.76
1532;BMP280;759;53.170;8.210;2022-12-07T14:39:43;100149.56;;;2.83
1532;BMP280;759;53.170;8.210;2022-12-07T14:42:08;100145.81;;;2.84
1532;BMP280;759;53.170;8.210;2022-12-07T14:44:33;100140.25;;;2.89
1532;BMP280;759;53.170;8.210;2022-12-07T14:46:59;100147.34;;;3.04
1532;BMP280;759;53.170;8.210;2022-12-07T14:49:24;100146.75;;;3.11
1532;BMP280;759;53.170;8.210;2022-12-07T14:51:49;100161.72;;;3.23
1532;BMP280;759;53.170;8.210;2022-12-07T14:54:18;100150.75;;;3.21
1532;BMP280;759;53.170;8.210;2022-12-07T14:56:44;100142.06;;;3.04
1532;BMP280;759;53.170;8.210;2022-12-07T14:59:10;100149.81;;;3.13
1532;BMP280;759;53.170;8.210;2022-12-07T15:01:36;100145.63;;;3.12
1532;BMP280;759;53.170;8.210;2022-12-07T15:04:01;100140.25;;;3.08
1532;BMP280;759;53.170;8.210;2022-12-07T15:06:27;100146.97;;;3.22
1532;BMP280;759;53.170;8.210;2022-12-07T15:08:52;100146.84;;;3.14
1532;BMP280;759;53.170;8.210;2022-12-07T15:11:17;100150.16;;;3.11
1532;BMP280;759;53.170;8.210;2022-12-07T15:13:43;100154.34;;;3.12
1532;BMP280;759;53.170;8.210;2022-12-07T15:16:27;100149.16;;;3.16
1532;BMP280;759;53.170;8.210;2022-12-07T15:18:52;100147.41;;;3.24
1532;BMP280;759;53.170;8.210;2022-12-07T15:21:17;100153.03;;;3.22
1532;BMP280;759;53.170;8.210;2022-12-07T15:23:42;100157.13;;;3.20
1532;BMP280;759;53.170;8.210;2022-12-07T15:26:09;100151.59;;;3.25
1532;BMP280;759;53.170;8.210;2022-12-07T15:28:34;100155.38;;;3.27
1532;BMP280;759;53.170;8.210;2022-12-07T15:31:00;100147.84;;;3.26
1532;BMP280;759;53.170;8.210;2022-12-07T15:33:25;100142.56;;;3.26
1532;BMP280;759;53.170;8.210;2022-12-07T15:35:50;100144.13;;;3.30
1532;BMP280;759;53.170;8.210;2022-12-07T15:38:15;100149.50;;;3.34
1532;BMP280;759;53.170;8.210;2022-12-07T15:40:40;100152.63;;;3.59
1532;BMP280;759;53.170;8.210;2022-12-07T15:43:07;100153.81;;;3.62
1532;BMP280;759;53.170;8.210;2022-12-07T15:45:53;100150.59;;;3.52
1532;BMP280;759;53.170;8.210;2022-12-07T15:48:18;100146.03;;;3.49
1532;BMP280;759;53.170;8.210;2022-12-07T15:50:43;100147.66;;;3.57
1532;BMP280;759;53.170;8.210;2022-12-07T15:53:08;100143.22;;;3.62
1532;BMP280;759;53.170;8.210;2022-12-07T15:55:33;100151.59;;;3.64
1532;BMP280;759;53.170;8.210;2022-12-07T15:57:59;100151.84;;;3.58
1532;BMP280;759;53.170;8.210;2022-12-07T16:00:24;100152.13;;;3.53
1532;BMP280;759;53.170;8.210;2022-12-07T16:02:50;100139.00;;;3.37
1532;BMP280;759;53.170;8.210;2022-12-07T16:05:15;100145.44;;;3.40
1532;BMP280;759;53.170;8.210;2022-12-07T16:07:40;100128.00;;;3.16
1532;BMP280;759;53.170;8.210;2022-12-07T16:10:05;100136.25;;;3.14
1532;BMP280;759;53.170;8.210;2022-12-07T16:12:31;100127.56;;;3.14
1532;BMP280;759;53.170;8.210;2022-12-07T16:14:56;100130.97;;;3.14
1532;BMP280;759;53.170;8.210;2022-12-07T16:17:21;100120.50;;;3.18
1532;BMP280;759;53.170;8.210;2022-12-07T16:19:46;100124.56;;;3.15
1532;BMP280;759;53.170;8.210;2022-12-07T16:22:11;100125.91;;;3.25
1532;BMP280;759;53.170;8.210;2022-12-07T16:24:37;100137.25;;;3.26
1532;BMP280;759;53.170;8.210;2022-12-07T16:27:02;100139.50;;;3.24
1532;BMP280;759;53.170;8.210;2022-12-07T16:29:27;100139.31;;;3.16
1532;BMP280;759;53.170;8.210;2022-12-07T16:31:52;100142.69;;;2.97
1532;BMP280;759;53.170;8.210;2022-12-07T16:34:17;100129.63;;;2.69
1532;BMP280;759;53.170;8.210;2022-12-07T16:36:43;100134.16;;;2.53
1532;BMP280;759;53.170;8.210;2022-12-07T16:39:08;100132.31;;;2.53
1532;BMP280;759;53.170;8.210;2022-12-07T16:41:33;100132.53;;;2.64
1532;BMP280;759;53.170;8.210;2022-12-07T16:44:02;100126.16;;;2.65
1532;BMP280;759;53.170;8.210;2022-12-07T16:46:27;100114.03;;;2.64
1532;BMP280;759;53.170;8.210;2022-12-07T16:48:52;100116.09;;;2.55
1532;BMP280;759;53.170;8.210;2022-12-07T16:51:17;100107.75;;;2.53
1532;BMP280;759;53.170;8.210;2022-12-07T16:53:43;100096.50;;;2.56